Terminal Aerodrome Forecast
Issued by NWS

Home | Current Version | Previous Version | Text Only | Print | Product List | Glossary On
Versions: 1 2 3 4 5 6 7 8 9 10 11 12 13 14 15 16 17 18 19 20 21 22 23 24 25 26
223
FTUS45 KGJT 271144 AAA
TAFCNY
TAF AMD
KCNY 271144Z 2712/2812 18008KT P6SM OVC080
     FM271500 18016G28KT P6SM SCT070 BKN120
     FM272000 22026G40KT P6SM VCSH OVC060
     FM280000 24019G30KT P6SM VCSH BKN110
     FM280200 25012G24KT P6SM BKN100
     FM280600 30012G20KT P6SM BKN090=

USA.gov is the U.S. government's official web portal to all federal, state and local government web resources and services.